Time;durP1;ratioP1;P1;durP2;ratioP2;P2;SDS_P1;SDS_P2;PMS_P1;PMS_P2;Temp;Humidity;BMP_temperature;BMP_pressure;BME280_temperature;BME280_humidity;BME280_pressure;Samples;Min_cycle;Max_cycle;Signal;HPM_P1;HPM_P2
2022/12/19 00:00:21;;;;;;;1999.90;999.90;;;2.80;99.90;;;;;;4997777;28;20053;-83
2022/12/19 00:02:46;;;;;;;1999.90;999.90;;;2.80;99.90;;;;;;5032006;28;20525;-81
2022/12/19 00:05:12;;;;;;;1999.90;999.90;;;2.30;99.90;;;;;;5032666;28;20046;-82
2022/12/19 00:07:38;;;;;;;1999.90;999.90;;;2.50;99.90;;;;;;5032150;28;20053;-82
2022/12/19 00:10:05;;;;;;;1999.90;999.90;;;2.40;99.90;;;;;;5030764;28;20053;-82
2022/12/19 00:12:31;;;;;;;1999.90;999.90;;;3.50;99.90;;;;;;5031362;28;20107;-82
2022/12/19 00:14:57;;;;;;;1999.90;999.90;;;;;;;;;;5014858;28;20050;-81
2022/12/19 00:17:22;;;;;;;1999.90;999.90;;;2.00;99.90;;;;;;5031754;28;20056;-81
2022/12/19 00:19:48;;;;;;;1999.90;831.97;;;;;;;;;;5015312;28;20049;-82
2022/12/19 00:22:17;;;;;;;1999.90;999.90;;;1.60;99.90;;;;;;5013879;28;20083;-82
2022/12/19 00:24:42;;;;;;;1999.90;999.90;;;1.50;99.90;;;;;;5026454;28;20516;-85
2022/12/19 00:27:08;;;;;;;1999.90;999.90;;;4.30;99.90;;;;;;5027737;28;20084;-82
2022/12/19 00:29:34;;;;;;;1999.90;999.90;;;;;;;;;;5012892;28;20046;-81
2022/12/19 00:32:00;;;;;;;1999.90;999.90;;;2.30;99.90;;;;;;5030349;28;20125;-81
2022/12/19 00:34:25;;;;;;;1999.90;999.90;;;2.50;1.00;;;;;;5012632;28;20501;-82
2022/12/19 00:36:51;;;;;;;1999.90;999.90;;;3.30;99.90;;;;;;4998127;28;20050;-82
2022/12/19 00:39:17;;;;;;;1999.90;999.90;;;0.40;1.00;;;;;;5013640;28;20049;-82
2022/12/19 00:41:42;;;;;;;1999.90;999.90;;;3.60;1.00;;;;;;5030502;28;20060;-82
2022/12/19 00:44:11;;;;;;;1999.90;999.90;;;2.40;1.00;;;;;;5013847;28;20052;-82
2022/12/19 00:46:37;;;;;;;1999.90;999.90;;;4.50;26.10;;;;;;5012352;28;20042;-83
2022/12/19 00:49:03;;;;;;;1999.90;999.90;;;3.10;29.20;;;;;;5002501;28;20075;-83
2022/12/19 00:51:32;;;;;;;1999.90;999.90;;;2.50;26.20;;;;;;5029685;28;20037;-84
2022/12/19 00:53:58;;;;;;;1999.90;999.90;;;2.90;1.00;;;;;;5030189;28;20046;-84
2022/12/19 00:56:26;;;;;;;1999.90;999.90;;;1.80;35.10;;;;;;5030904;28;20055;-84
2022/12/19 00:58:52;;;;;;;1999.90;999.90;;;3.80;1.50;;;;;;5009009;28;20061;-87
2022/12/19 01:01:21;;;;;;;1999.90;999.90;;;3.40;96.40;;;;;;5010090;28;20041;-84
2022/12/19 01:03:48;;;;;;;1999.90;999.90;;;2.70;43.30;;;;;;5029262;28;20073;-85
2022/12/19 01:06:14;;;;;;;1999.90;999.90;;;3.20;73.70;;;;;;5030595;28;20041;-84
2022/12/19 01:08:40;;;;;;;1999.90;999.90;;;3.00;99.90;;;;;;5024295;28;20097;-84
2022/12/19 01:11:06;;;;;;;1999.90;999.90;;;3.10;99.90;;;;;;5029868;28;20168;-85
2022/12/19 01:13:34;;;;;;;1999.90;999.90;;;3.10;26.20;;;;;;5014033;28;20033;-85
2022/12/19 01:16:09;;;;;;;1999.90;999.90;;;2.50;88.20;;;;;;5012582;28;20045;-88
2022/12/19 01:18:35;;;;;;;1999.90;999.90;;;2.10;96.70;;;;;;5010769;28;20079;-86
2022/12/19 01:21:05;;;;;;;1999.90;999.90;;;3.30;97.90;;;;;;5013815;28;20042;-85
2022/12/19 01:23:31;;;;;;;1999.90;999.90;;;4.20;81.40;;;;;;5012803;28;20390;-85
2022/12/19 01:25:57;;;;;;;1999.90;999.90;;;6.10;29.10;;;;;;4995704;28;20045;-88
2022/12/19 01:28:23;;;;;;;1999.90;999.90;;;3.80;66.00;;;;;;4999590;28;20061;-88
2022/12/19 01:30:49;;;;;;;1999.90;999.90;;;4.70;83.20;;;;;;5015818;28;20362;-88
2022/12/19 01:33:17;;;;;;;1999.90;999.90;;;3.10;28.80;;;;;;4999270;28;20057;-90
2022/12/19 01:35:44;;;;;;;1999.90;999.90;;;4.50;86.90;;;;;;5011581;28;20041;-90
2022/12/19 01:38:18;;;;;;;1999.90;999.90;;;4.00;99.90;;;;;;4997798;28;20492;-91
2022/12/19 01:40:50;;;;;;;1999.90;665.03;;;;;;;;;;5010524;28;20049;-90
2022/12/19 01:43:17;;;;;;;1999.90;999.90;;;3.50;56.40;;;;;;5015926;28;20041;-89
2022/12/19 01:45:43;;;;;;;1999.90;999.90;;;3.40;1.00;;;;;;5015826;28;20044;-91
2022/12/19 01:48:34;;;;;;;1999.90;999.90;;;4.60;1.00;;;;;;5001709;28;20132;-89
2022/12/19 01:51:21;;;;;;;1999.90;999.90;;;3.80;1.00;;;;;;5010995;28;20049;-95
2022/12/19 01:54:02;;;;;;;1999.90;999.90;;;2.90;1.00;;;;;;4998193;28;20056;-93
2022/12/19 01:56:31;;;;;;;1999.90;999.90;;;3.60;1.00;;;;;;5000584;28;20041;-93
2022/12/19 01:59:00;;;;;;;1999.90;999.90;;;3.50;1.00;;;;;;5016820;28;20045;-94
2022/12/19 02:01:26;;;;;;;1999.90;999.90;;;3.60;1.00;;;;;;5011628;28;20577;-91
2022/12/19 02:03:53;;;;;;;1999.90;999.90;;;2.40;1.00;;;;;;5010772;28;20050;-92
2022/12/19 02:06:21;;;;;;;1999.90;999.90;;;3.50;1.00;;;;;;5014409;28;20176;-94
2022/12/19 02:08:47;;;;;;;1999.90;999.90;;;4.30;1.00;;;;;;5015909;28;20526;-95
2022/12/19 02:11:13;;;;;;;1999.90;999.90;;;3.80;1.00;;;;;;5016188;28;20049;-92
2022/12/19 02:13:40;;;;;;;1999.90;999.90;;;;;;;;;;4997298;28;20052;-91
2022/12/19 02:16:22;;;;;;;1999.90;999.90;;;4.30;1.00;;;;;;4997142;28;20097;-91
2022/12/19 02:19:25;;;;;;;1999.90;999.90;;;5.70;90.00;;;;;;4988033;28;20113;-92
2022/12/19 02:21:55;;;;;;;1999.90;999.90;;;4.00;99.90;;;;;;4998454;28;20337;-90
2022/12/19 02:24:48;;;;;;;1999.90;999.90;;;6.50;99.90;;;;;;5014292;28;20103;-92
2022/12/19 02:27:36;;;;;;;1999.90;999.90;;;3.60;99.90;;;;;;5013444;28;20041;-90
2022/12/19 02:30:14;;;;;;;1999.90;812.58;;;3.90;99.90;;;;;;5014116;28;20053;-90
2022/12/19 02:33:11;;;;;;;1999.90;999.90;;;6.20;1.00;;;;;;4996566;28;20041;-89
2022/12/19 02:35:52;;;;;;;1999.90;999.90;;;4.10;23.20;;;;;;5028150;28;20073;-92
2022/12/19 02:38:40;;;;;;;1999.90;999.90;;;3.60;1.00;;;;;;5013447;28;20053;-88
2022/12/19 02:41:14;;;;;;;1999.90;999.90;;;4.00;1.00;;;;;;5032959;28;20053;-92
2022/12/19 02:43:46;;;;;;;1999.90;999.90;;;2.00;1.00;;;;;;5014807;28;20048;-93
2022/12/19 02:46:15;;;;;;;1999.90;999.90;;;6.40;1.00;;;;;;5033150;28;20079;-94
2022/12/19 02:48:41;;;;;;;1999.90;726.63;;;3.60;99.90;;;;;;4998197;28;20128;-91
2022/12/19 02:51:07;;;;;;;1999.90;999.90;;;3.50;99.90;;;;;;4997227;28;20096;-92
2022/12/19 02:53:34;;;;;;;1999.90;999.90;;;4.60;99.90;;;;;;5013454;28;20053;-90
2022/12/19 02:56:47;;;;;;;1999.90;999.90;;;5.10;1.00;;;;;;5030977;28;20073;-91
2022/12/19 02:59:19;;;;;;;1999.90;999.90;;;5.50;44.90;;;;;;4991847;28;20053;-91
2022/12/19 03:02:21;;;;;;;1999.90;999.90;;;4.10;99.90;;;;;;5011584;28;20069;-90
2022/12/19 03:05:20;;;;;;;1999.90;999.90;;;3.60;99.90;;;;;;4979343;28;20127;-91
2022/12/19 03:07:56;;;;;;;1999.90;999.90;;;5.40;99.90;;;;;;5006478;28;20128;-90
2022/12/19 03:10:33;;;;;;;1999.90;999.90;;;5.50;1.00;;;;;;4998299;28;20054;-91
2022/12/19 03:13:06;;;;;;;1999.90;999.90;;;3.90;1.00;;;;;;5014820;28;20037;-92
2022/12/19 03:15:33;;;;;;;1999.90;999.90;;;3.30;55.60;;;;;;5014685;28;20087;-92
2022/12/19 03:18:00;;;;;;;1999.90;999.90;;;5.70;40.30;;;;;;4997139;28;20057;-91
2022/12/19 03:20:34;;;;;;;1999.90;999.90;;;3.90;43.70;;;;;;5013776;28;20080;-90
2022/12/19 03:23:00;;;;;;;1999.90;999.90;;;4.10;99.90;;;;;;4997340;28;20103;-92
2022/12/19 03:25:28;;;;;;;1999.90;999.90;;;4.30;99.90;;;;;;4998760;28;20041;-93
2022/12/19 03:27:54;;;;;;;;;;;3.80;76.10;;;;;;5015009;28;20041;-93
2022/12/19 03:30:20;;;;;;;1999.90;999.90;;;6.00;99.90;;;;;;4996894;28;20011;-91
2022/12/19 03:32:48;;;;;;;1999.90;999.90;;;4.20;99.90;;;;;;5012141;28;20060;-93
2022/12/19 03:35:20;;;;;;;1999.90;999.90;;;5.70;99.90;;;;;;4998999;28;20049;-93
2022/12/19 03:37:49;;;;;;;1999.90;999.90;;;5.10;99.90;;;;;;5029922;28;20042;-93
2022/12/19 03:40:19;;;;;;;1999.90;999.90;;;3.90;99.90;;;;;;4998295;28;20057;-93
2022/12/19 03:46:00;;;;;;;1999.90;999.90;;;5.40;99.90;;;;;;4996418;28;20112;-93
2022/12/19 03:48:45;;;;;;;1999.90;999.90;;;4.20;99.90;;;;;;4996151;28;20052;-93
2022/12/19 03:51:33;;;;;;;1999.90;999.90;;;4.40;99.90;;;;;;5013376;28;20124;-91
2022/12/19 03:54:22;;;;;;;1999.90;999.90;;;6.10;99.90;;;;;;5014298;28;20500;-94
2022/12/19 03:56:47;;;;;;;1999.90;999.90;;;5.40;99.90;;;;;;5014533;28;20481;-89
2022/12/19 03:59:25;;;;;;;1999.90;999.90;;;6.80;99.90;;;;;;5015357;28;20049;-90
2022/12/19 04:01:53;;;;;;;1999.90;999.90;;;4.40;99.90;;;;;;5014195;28;20415;-90
2022/12/19 04:04:21;;;;;;;1999.90;999.90;;;4.50;99.90;;;;;;4997785;28;20060;-90
2022/12/19 04:06:48;;;;;;;1999.90;999.90;;;4.50;99.90;;;;;;5014314;28;20492;-90
2022/12/19 04:09:14;;;;;;;1999.90;999.90;;;3.90;99.90;;;;;;4997898;28;20046;-88
2022/12/19 04:11:45;;;;;;;1999.90;999.90;;;6.00;99.90;;;;;;5014801;28;20513;-85
2022/12/19 04:14:17;;;;;;;1999.90;999.90;;;6.10;99.90;;;;;;4998320;28;20195;-86
2022/12/19 04:17:05;;;;;;;1999.90;999.90;;;5.30;99.90;;;;;;5014327;28;20089;-86
2022/12/19 04:19:42;;;;;;;1999.90;999.90;;;4.50;1.00;;;;;;5015052;28;20053;-87
2022/12/19 04:22:18;;;;;;;1999.90;999.90;;;7.10;99.90;;;;;;5014160;28;20045;-87
2022/12/19 04:24:45;;;;;;;1999.90;999.90;;;4.00;99.90;;;;;;5013708;28;20068;-88
2022/12/19 04:27:12;;;;;;;1870.83;731.07;;;6.80;99.90;;;;;;4981873;28;20078;-88
2022/12/19 04:29:38;;;;;;;1999.90;999.90;;;5.00;1.00;;;;;;5015184;28;20052;-87
2022/12/19 04:32:07;;;;;;;1999.90;999.90;;;4.90;5.10;;;;;;5031340;28;20050;-88
2022/12/19 04:34:32;;;;;;;1999.90;999.90;;;5.00;1.00;;;;;;5014203;28;20128;-91
2022/12/19 04:36:58;;;;;;;1999.90;999.90;;;4.60;48.60;;;;;;4997748;28;20128;-91
2022/12/19 04:39:25;;;;;;;1999.90;999.90;;;;;;;;;;4998446;28;20108;-92
2022/12/19 04:41:51;;;;;;;1999.90;999.90;;;;;;;;;;4997627;28;20055;-94
2022/12/19 04:44:16;;;;;;;1999.90;999.90;;;4.80;99.90;;;;;;4997512;28;20073;-94
2022/12/19 04:46:42;;;;;;;1999.90;999.90;;;5.50;31.50;;;;;;5013701;28;20095;-93
2022/12/19 04:49:08;;;;;;;1999.90;999.90;;;4.60;29.70;;;;;;4998095;28;20057;-94
2022/12/19 04:51:33;;;;;;;1999.90;623.95;;;4.40;21.00;;;;;;5014343;28;20045;-94
2022/12/19 04:53:59;;;;;;;1708.82;382.90;;;4.10;1.00;;;;;;5013521;28;20508;-92
2022/12/19 04:56:25;;;;;;;1999.90;999.90;;;7.10;1.00;;;;;;4997184;28;20552;-92
2022/12/19 04:58:58;;;;;;;1999.90;999.90;;;5.00;1.00;;;;;;5012629;28;20049;-92
2022/12/19 05:01:25;;;;;;;1999.90;999.90;;;6.40;8.20;;;;;;5012674;28;20076;-89
2022/12/19 05:03:51;;;;;;;1999.90;999.90;;;7.50;36.40;;;;;;5010013;28;20042;-88
2022/12/19 05:06:17;;;;;;;1999.90;999.90;;;5.00;1.00;;;;;;5000969;28;20107;-90
2022/12/19 05:08:43;;;;;;;1999.90;999.90;;;;;;;;;;5001591;28;20052;-90
2022/12/19 05:11:12;;;;;;;1999.90;999.90;;;5.30;45.20;;;;;;5001634;28;20053;-89
2022/12/19 05:13:40;;;;;;;1999.90;999.90;;;5.40;76.00;;;;;;4995463;28;20506;-88
2022/12/19 05:16:08;;;;;;;1999.90;999.90;;;5.10;99.90;;;;;;4992565;28;20048;-92
2022/12/19 05:18:35;;;;;;;1999.90;615.88;;;6.50;99.90;;;;;;5016300;28;20482;-88
2022/12/19 05:21:01;;;;;;;1999.90;999.90;;;;;;;;;;5017860;28;20060;-91
2022/12/19 05:23:31;;;;;;;1999.90;999.90;;;5.50;99.90;;;;;;5017440;28;20048;-90
2022/12/19 05:26:01;;;;;;;1999.90;999.90;;;3.60;12.80;;;;;;5025447;28;20409;-88
2022/12/19 05:28:27;;;;;;;1999.90;999.90;;;5.40;6.60;;;;;;5016793;28;20498;-85
2022/12/19 05:31:05;;;;;;;1999.90;999.90;;;5.10;99.90;;;;;;4999916;28;20053;-88
2022/12/19 05:33:31;;;;;;;1999.90;999.90;;;5.40;1.00;;;;;;5031924;28;20384;-87
2022/12/19 05:35:57;;;;;;;1999.90;999.90;;;3.20;99.90;;;;;;5033802;28;20044;-88
2022/12/19 05:38:23;;;;;;;1999.90;999.90;;;5.50;99.90;;;;;;5017895;28;20052;-89
2022/12/19 05:40:48;;;;;;;1999.90;999.90;;;7.20;1.00;;;;;;5032269;28;20399;-87
2022/12/19 05:43:14;;;;;;;1999.90;999.90;;;;;;;;;;5026106;28;20041;-86
2022/12/19 05:45:40;;;;;;;1999.90;999.90;;;6.00;1.00;;;;;;5015058;28;20046;-88
2022/12/19 05:48:06;;;;;;;1999.90;999.90;;;;;;;;;;5013053;28;20098;-87
2022/12/19 05:50:32;;;;;;;1999.90;999.90;;;6.00;99.90;;;;;;5008449;28;20042;-84
2022/12/19 05:52:57;;;;;;;1999.90;651.33;;;6.50;50.80;;;;;;5012033;28;20060;-85
2022/12/19 05:55:23;;;;;;;1999.90;999.90;;;4.00;1.00;;;;;;5014876;28;20046;-84
2022/12/19 05:57:49;;;;;;;1999.90;999.90;;;6.90;99.90;;;;;;5033786;28;20052;-85
2022/12/19 06:00:15;;;;;;;1999.90;999.90;;;8.20;99.90;;;;;;5014805;28;20067;-81
2022/12/19 06:02:41;;;;;;;1999.90;999.90;;;6.20;1.00;;;;;;4993909;28;20478;-80
2022/12/19 06:05:08;;;;;;;1999.90;999.90;;;6.70;99.90;;;;;;5030177;28;20049;-80
2022/12/19 06:07:34;;;;;;;1999.90;999.90;;;6.30;99.90;;;;;;4999999;28;20398;-80
2022/12/19 06:09:59;;;;;;;1999.90;999.90;;;6.40;99.90;;;;;;5026054;28;20050;-80
2022/12/19 06:12:25;;;;;;;1999.90;999.90;;;6.10;99.90;;;;;;5029999;28;20044;-80
2022/12/19 06:14:51;;;;;;;1999.90;999.90;;;4.90;99.90;;;;;;5029259;28;20125;-80
2022/12/19 06:17:17;;;;;;;1999.90;999.90;;;6.20;99.90;;;;;;5029566;28;20457;-79
2022/12/19 06:19:43;;;;;;;1999.90;999.90;;;8.00;99.90;;;;;;5010746;28;20044;-79
2022/12/19 06:22:09;;;;;;;1999.90;999.90;;;7.90;99.90;;;;;;5030605;28;20056;-79
2022/12/19 06:24:34;;;;;;;1999.90;999.90;;;6.70;99.90;;;;;;5033167;28;20049;-80
2022/12/19 06:27:00;;;;;;;1999.90;999.90;;;8.30;99.90;;;;;;5016428;28;20049;-79
2022/12/19 06:29:26;;;;;;;1999.90;999.90;;;8.40;99.90;;;;;;5013051;28;20045;-79
2022/12/19 06:31:51;;;;;;;1999.90;999.90;;;7.60;99.90;;;;;;5028631;28;20049;-79
2022/12/19 06:34:17;;;;;;;1999.90;999.90;;;7.50;99.90;;;;;;5032859;28;20587;-82
2022/12/19 06:36:43;;;;;;;1999.90;999.90;;;6.70;99.90;;;;;;5015245;28;20049;-77
2022/12/19 06:39:12;;;;;;;1999.90;999.90;;;7.50;99.90;;;;;;5032847;28;20092;-79
2022/12/19 06:44:22;;;;;;;1999.90;999.90;;;7.20;99.90;;;;;;5030048;28;20057;-79
2022/12/19 06:46:48;;;;;;;1999.90;999.90;;;6.80;99.90;;;;;;5015815;28;20072;-79
2022/12/19 06:49:14;;;;;;;1999.90;999.90;;;6.10;99.90;;;;;;5014163;28;20049;-79
2022/12/19 06:51:39;;;;;;;1999.90;802.83;;;7.40;99.90;;;;;;5032197;28;20110;-80
2022/12/19 06:54:05;;;;;;;1999.90;999.90;;;6.60;99.90;;;;;;5012298;28;20056;-80
2022/12/19 06:56:38;;;;;;;1999.90;999.90;;;7.10;99.90;;;;;;5029490;28;20045;-79
2022/12/19 06:59:05;;;;;;;1999.90;999.90;;;7.90;99.90;;;;;;5025055;28;20045;-80
2022/12/19 07:01:52;;;;;;;1999.90;999.90;;;7.10;99.90;;;;;;5030158;28;20102;-80
2022/12/19 07:04:41;;;;;;;1999.90;999.90;;;6.80;99.90;;;;;;5022375;28;20081;-82
2022/12/19 07:07:07;;;;;;;1999.90;999.90;;;6.70;99.90;;;;;;5022966;28;20058;-83
2022/12/19 07:09:33;;;;;;;1948.78;794.50;;;8.60;99.90;;;;;;5027286;28;20041;-82
2022/12/19 07:12:00;;;;;;;1999.90;999.90;;;6.90;99.90;;;;;;5016848;28;20450;-82
2022/12/19 07:14:26;;;;;;;1999.90;999.90;;;8.10;99.90;;;;;;5030910;28;20040;-83
2022/12/19 07:16:52;;;;;;;1999.90;999.90;;;6.90;99.90;;;;;;5014642;28;20045;-82
2022/12/19 07:19:19;;;;;;;1999.90;999.90;;;8.80;99.90;;;;;;5012966;28;20049;-82
2022/12/19 07:21:44;;;;;;;1999.90;999.90;;;6.90;99.90;;;;;;5015029;28;20482;-82
2022/12/19 07:24:13;;;;;;;1999.90;999.90;;;7.00;99.90;;;;;;5031870;28;20084;-83
2022/12/19 07:26:39;;;;;;;1999.90;999.90;;;7.60;99.90;;;;;;5016080;28;20045;-82
2022/12/19 07:29:05;;;;;;;1999.90;999.90;;;;;;;;;;5013005;28;20045;-82
2022/12/19 07:31:31;;;;;;;1999.90;999.90;;;7.50;99.90;;;;;;5024786;28;20053;-82
2022/12/19 07:33:57;;;;;;;1999.90;999.90;;;9.00;99.90;;;;;;5008200;28;20037;-84
2022/12/19 07:36:22;;;;;;;1999.90;999.90;;;9.40;99.90;;;;;;5031396;28;20486;-81
2022/12/19 07:38:49;;;;;;;1999.90;999.90;;;8.20;99.90;;;;;;5029360;28;20053;-86
2022/12/19 07:41:15;;;;;;;1999.90;999.90;;;8.30;99.90;;;;;;5028371;28;20045;-85
2022/12/19 07:43:41;;;;;;;1999.90;999.90;;;7.40;99.90;;;;;;5005945;28;20053;-86
2022/12/19 07:46:07;;;;;;;1999.90;999.90;;;8.80;99.90;;;;;;5015149;28;20072;-86
2022/12/19 07:48:32;;;;;;;1999.90;999.90;;;8.00;99.90;;;;;;5021250;28;20041;-87
2022/12/19 07:50:58;;;;;;;1999.90;999.90;;;6.30;99.90;;;;;;5027232;28;20416;-87
2022/12/19 07:53:24;;;;;;;1999.90;999.90;;;7.80;99.90;;;;;;4996739;28;20066;-86
2022/12/19 07:55:50;;;;;;;1999.90;999.90;;;7.40;99.90;;;;;;5028519;28;20046;-86
2022/12/19 07:58:16;;;;;;;1999.90;999.90;;;7.60;99.90;;;;;;5026752;28;20042;-88
2022/12/19 08:00:42;;;;;;;1999.90;999.90;;;7.40;99.90;;;;;;5028747;28;20053;-87
2022/12/19 08:03:07;;;;;;;1844.13;791.63;;;7.50;99.90;;;;;;5023701;28;20386;-87
2022/12/19 08:05:33;;;;;;;1999.90;999.90;;;9.50;99.90;;;;;;4997094;28;20049;-87
2022/12/19 08:07:59;;;;;;;1999.90;999.90;;;7.70;99.90;;;;;;5029850;28;20045;-85
2022/12/19 08:10:25;;;;;;;1999.90;999.90;;;7.20;99.90;;;;;;5030598;28;20052;-83
2022/12/19 08:12:51;;;;;;;1999.90;999.90;;;10.00;99.90;;;;;;5027336;28;20049;-88
2022/12/19 08:15:17;;;;;;;1999.90;999.90;;;6.20;99.90;;;;;;5030154;28;20120;-86
2022/12/19 08:17:42;;;;;;;1999.90;999.90;;;8.10;99.90;;;;;;5010860;28;20056;-88
2022/12/19 08:20:10;;;;;;;1999.90;999.90;;;;;;;;;;4996488;28;20045;-91
2022/12/19 08:22:36;;;;;;;1999.90;999.90;;;7.30;99.90;;;;;;5021778;28;20076;-90
2022/12/19 08:25:02;;;;;;;1999.90;999.90;;;8.50;99.90;;;;;;5028590;28;20045;-88
2022/12/19 08:27:28;;;;;;;1999.90;999.90;;;8.40;99.90;;;;;;5015159;28;20045;-88
2022/12/19 08:29:54;;;;;;;1999.90;999.90;;;8.00;99.90;;;;;;5012880;28;20092;-88
2022/12/19 08:32:19;;;;;;;1999.90;999.90;;;7.50;99.90;;;;;;5011563;28;20077;-86
2022/12/19 08:34:45;;;;;;;1999.90;999.90;;;8.00;99.90;;;;;;5031631;28;20052;-89
2022/12/19 08:37:11;;;;;;;1999.90;999.90;;;8.10;99.90;;;;;;5029452;28;20080;-88
2022/12/19 08:39:36;;;;;;;1999.90;999.90;;;8.60;99.90;;;;;;5035643;28;20046;-88
2022/12/19 08:42:02;;;;;;;1999.90;999.90;;;9.60;99.90;;;;;;4999087;28;20053;-88
2022/12/19 08:44:28;;;;;;;1999.90;999.90;;;8.10;99.90;;;;;;5035815;28;20041;-89
2022/12/19 08:46:54;;;;;;;1999.90;999.90;;;7.50;99.90;;;;;;5028224;28;20069;-89
2022/12/19 08:49:19;;;;;;;1999.90;999.90;;;9.00;99.90;;;;;;5029855;28;20048;-88
2022/12/19 08:51:45;;;;;;;1999.90;999.90;;;7.30;99.90;;;;;;5013339;28;20108;-88
2022/12/19 08:54:12;;;;;;;1999.90;999.90;;;;;;;;;;5031569;28;20159;-88
2022/12/19 08:56:38;;;;;;;1999.90;999.90;;;8.70;99.90;;;;;;5014301;28;20042;-90
2022/12/19 08:59:04;;;;;;;1999.90;999.90;;;10.50;99.90;;;;;;5033165;28;20498;-88
2022/12/19 09:01:30;;;;;;;1999.90;999.90;;;9.90;99.90;;;;;;5015441;28;20057;-88
2022/12/19 09:03:59;;;;;;;1999.90;999.90;;;10.40;99.90;;;;;;5035114;28;20511;-88
2022/12/19 09:06:25;;;;;;;1999.90;999.90;;;9.50;99.90;;;;;;5015999;28;20268;-89
2022/12/19 09:08:51;;;;;;;1999.90;999.90;;;10.10;99.90;;;;;;5015663;28;20054;-87
2022/12/19 09:11:18;;;;;;;1999.90;999.90;;;9.00;99.90;;;;;;5012598;28;20049;-91
2022/12/19 09:13:45;;;;;;;1999.90;999.90;;;9.00;99.90;;;;;;5031939;28;20128;-86
2022/12/19 09:16:18;;;;;;;1999.90;999.90;;;8.90;99.90;;;;;;5032990;28;20777;-88
2022/12/19 09:18:45;;;;;;;1999.90;999.90;;;8.90;99.90;;;;;;5031993;28;20053;-86
2022/12/19 09:21:12;;;;;;;1999.90;999.90;;;9.00;99.90;;;;;;5015112;28;20049;-88
2022/12/19 09:23:38;;;;;;;1999.90;999.90;;;9.20;99.90;;;;;;5031351;28;20275;-87
2022/12/19 09:26:07;;;;;;;1999.90;999.90;;;9.00;99.90;;;;;;5010657;28;20043;-88
2022/12/19 09:28:33;;;;;;;1999.90;999.90;;;8.90;99.90;;;;;;4995276;28;20057;-88
2022/12/19 09:31:01;;;;;;;1999.90;999.90;;;8.70;99.90;;;;;;5024674;28;20490;-87
2022/12/19 09:33:27;;;;;;;1999.90;999.90;;;8.90;99.90;;;;;;5015525;28;20144;-86
2022/12/19 09:35:55;;;;;;;1999.90;999.90;;;9.40;99.90;;;;;;5000649;28;20080;-89
2022/12/19 09:38:22;;;;;;;1999.90;999.90;;;9.50;99.90;;;;;;5015463;28;20488;-91
2022/12/19 09:41:00;;;;;;;1999.90;999.90;;;10.80;99.90;;;;;;5017544;28;20135;-89
2022/12/19 09:44:09;;;;;;;1999.90;999.90;;;8.10;99.90;;;;;;5015120;28;20050;-88
2022/12/19 09:46:52;;;;;;;1999.90;999.90;;;9.70;99.90;;;;;;5031515;28;20049;-87
2022/12/19 09:49:22;;;;;;;1999.90;999.90;;;9.40;99.90;;;;;;5028542;28;20041;-86
2022/12/19 09:52:01;;;;;;;1999.90;999.90;;;9.80;99.90;;;;;;5032131;28;20041;-87
2022/12/19 09:55:01;;;;;;;1999.90;999.90;;;9.00;99.90;;;;;;5022144;28;20076;-88
2022/12/19 09:57:41;;;;;;;1999.90;999.90;;;9.40;99.90;;;;;;5032190;28;20513;-87
2022/12/19 10:00:18;;;;;;;1999.90;999.90;;;11.10;99.90;;;;;;5030509;28;20148;-88
2022/12/19 10:02:52;;;;;;;1999.90;999.90;;;9.90;99.90;;;;;;5024391;28;20053;-88
2022/12/19 10:05:32;;;;;;;1999.90;999.90;;;9.50;99.90;;;;;;5031969;28;20081;-87
2022/12/19 10:08:00;;;;;;;1999.90;999.90;;;9.60;99.90;;;;;;5009215;28;20060;-88
2022/12/19 10:10:53;;;;;;;1999.90;999.90;;;9.50;99.90;;;;;;5032363;28;20056;-89
2022/12/19 10:13:28;;;;;;;1999.90;999.90;;;9.60;99.90;;;;;;5011759;28;20124;-86
2022/12/19 10:16:00;;;;;;;1999.90;999.90;;;10.10;99.90;;;;;;5013683;28;20490;-88
2022/12/19 10:18:53;;;;;;;1999.90;999.90;;;9.60;99.90;;;;;;4993371;28;20124;-89
2022/12/19 10:21:44;;;;;;;1999.90;999.90;;;9.60;99.90;;;;;;5011623;28;20520;-86
2022/12/19 10:24:47;;;;;;;1999.90;999.90;;;9.90;99.90;;;;;;5001122;28;20084;-88
2022/12/19 10:27:38;;;;;;;1999.90;999.90;;;10.00;99.90;;;;;;5017954;28;20376;-85
2022/12/19 10:30:12;;;;;;;1999.90;999.90;;;9.80;99.90;;;;;;5031315;28;20049;-86
2022/12/19 10:32:57;;;;;;;1999.90;999.90;;;8.80;99.90;;;;;;5031549;28;20485;-87
2022/12/19 10:35:33;;;;;;;1999.90;999.90;;;10.40;99.90;;;;;;5030357;28;20733;-85
2022/12/19 10:38:10;;;;;;;1999.90;999.90;;;9.90;99.90;;;;;;5032550;28;20540;-86
2022/12/19 10:40:42;;;;;;;1999.90;999.90;;;10.10;99.90;;;;;;5026209;28;20057;-86
2022/12/19 10:43:31;;;;;;;1999.90;999.90;;;10.50;99.90;;;;;;5024999;28;20049;-88
2022/12/19 10:46:01;;;;;;;1999.90;999.90;;;10.00;99.90;;;;;;5021425;28;20486;-85
2022/12/19 10:48:27;;;;;;;1999.90;999.90;;;10.40;99.90;;;;;;4996798;28;20487;-89
2022/12/19 10:50:53;;;;;;;1999.90;999.90;;;10.10;99.90;;;;;;5027115;28;20064;-86
2022/12/19 10:53:27;;;;;;;1999.90;999.90;;;10.20;99.90;;;;;;5031388;28;20414;-86
2022/12/19 10:55:58;;;;;;;1999.90;999.90;;;10.20;99.90;;;;;;5027913;28;20520;-88
2022/12/19 10:58:25;;;;;;;1999.90;999.90;;;10.50;99.90;;;;;;5032790;28;20106;-87
2022/12/19 11:01:09;;;;;;;1999.90;999.90;;;11.00;99.90;;;;;;5028967;28;20118;-91
2022/12/19 11:03:37;;;;;;;1999.90;999.90;;;9.90;99.90;;;;;;5013990;28;20156;-86
2022/12/19 11:06:04;;;;;;;1999.90;999.90;;;10.70;99.90;;;;;;5014966;28;20080;-86
2022/12/19 11:08:35;;;;;;;1999.90;999.90;;;10.70;99.90;;;;;;5017528;28;20045;-87
2022/12/19 11:11:03;;;;;;;1999.90;999.90;;;10.80;99.90;;;;;;5026731;28;20052;-86
2022/12/19 11:13:43;;;;;;;1999.90;999.90;;;10.60;99.90;;;;;;5012215;28;20049;-85
2022/12/19 11:16:09;;;;;;;1999.90;999.90;;;10.30;99.90;;;;;;5031101;28;20152;-83
2022/12/19 11:18:44;;;;;;;1999.90;999.90;;;11.60;99.90;;;;;;5010847;28;20088;-85
2022/12/19 11:21:17;;;;;;;1999.90;999.90;;;11.40;99.90;;;;;;5026599;28;20394;-84
2022/12/19 11:24:00;;;;;;;1999.90;999.90;;;10.50;99.90;;;;;;5031292;28;20081;-85
2022/12/19 11:26:41;;;;;;;1999.90;999.90;;;10.90;99.90;;;;;;5009162;28;20080;-84
2022/12/19 11:29:28;;;;;;;1999.90;999.90;;;11.10;99.90;;;;;;5010136;28;20073;-85
2022/12/19 11:32:01;;;;;;;1999.90;999.90;;;10.20;99.90;;;;;;5027721;28;20060;-85
2022/12/19 11:34:35;;;;;;;1999.90;999.90;;;10.60;99.90;;;;;;5026915;28;20486;-85
2022/12/19 11:37:20;;;;;;;1999.90;999.90;;;11.90;99.90;;;;;;5027341;28;20045;-84
2022/12/19 11:40:11;;;;;;;1999.90;999.90;;;11.10;99.90;;;;;;5026271;28;20057;-84
2022/12/19 11:42:50;;;;;;;1999.90;999.90;;;10.70;99.90;;;;;;5020040;28;20046;-84
2022/12/19 11:45:31;;;;;;;1999.90;999.90;;;11.10;99.90;;;;;;5000790;28;20049;-84
2022/12/19 11:48:02;;;;;;;1999.90;999.90;;;11.20;99.90;;;;;;5005346;28;20080;-84
2022/12/19 11:50:33;;;;;;;1999.90;999.90;;;11.20;99.90;;;;;;5029726;28;20106;-84
2022/12/19 11:53:26;;;;;;;1999.90;999.90;;;11.30;99.90;;;;;;5020639;28;20057;-83
2022/12/19 11:55:58;;;;;;;1999.90;999.90;;;10.90;99.90;;;;;;5023994;28;20049;-86
2022/12/19 11:58:29;;;;;;;1999.90;999.90;;;11.40;99.90;;;;;;5031708;28;20046;-85
2022/12/19 12:01:17;;;;;;;1999.90;999.90;;;11.00;99.90;;;;;;5022870;28;20068;-87
2022/12/19 12:04:07;;;;;;;1595.75;767.88;;;10.80;99.90;;;;;;5030406;28;20067;-83
2022/12/19 12:06:46;;;;;;;1999.90;999.90;;;11.40;99.90;;;;;;5030851;28;20187;-83
2022/12/19 12:09:53;;;;;;;1999.90;999.90;;;11.30;99.90;;;;;;5031364;28;20449;-84
2022/12/19 12:12:23;;;;;;;1999.90;999.90;;;11.40;99.90;;;;;;4950747;28;20077;-83
2022/12/19 12:15:07;;;;;;;1999.90;999.90;;;11.10;99.90;;;;;;5010763;28;20498;-84
2022/12/19 12:17:45;;;;;;;1999.90;999.90;;;11.60;99.90;;;;;;5012495;28;20077;-83
2022/12/19 12:20:33;;;;;;;1999.90;999.90;;;11.00;99.90;;;;;;5029816;28;20045;-81
2022/12/19 12:23:24;;;;;;;1999.90;999.90;;;11.30;99.90;;;;;;5029896;28;21589;-83
2022/12/19 12:26:08;;;;;;;1999.90;999.90;;;11.00;99.90;;;;;;5022760;28;20049;-84
2022/12/19 12:28:58;;;;;;;1999.90;999.90;;;11.60;99.90;;;;;;5018753;28;20089;-85
2022/12/19 12:31:42;;;;;;;1999.90;999.90;;;11.10;99.90;;;;;;5030654;28;20148;-84
2022/12/19 12:34:19;;;;;;;1999.90;999.90;;;11.60;99.90;;;;;;5026956;28;20085;-84
2022/12/19 12:37:12;;;;;;;1999.90;999.90;;;11.10;99.90;;;;;;5031547;28;20052;-81